createdAt,value
2017-06-27T00:00:07.732Z,14
2017-06-27T00:01:10.361Z,13.9
2017-06-27T00:02:13.138Z,14.1
2017-06-27T00:03:16.176Z,13.9
2017-06-27T00:04:18.893Z,14
2017-06-27T00:05:21.666Z,14
2017-06-27T00:06:24.242Z,13.9
2017-06-27T00:07:26.837Z,13.8
2017-06-27T00:08:29.634Z,13.9
2017-06-27T00:09:32.257Z,13.9
2017-06-27T00:10:34.830Z,13.9
2017-06-27T00:11:37.588Z,13.9
2017-06-27T00:12:40.225Z,13.8
2017-06-27T00:13:42.820Z,14
2017-06-27T00:14:45.527Z,14
2017-06-27T00:15:48.086Z,13.8
2017-06-27T00:16:50.687Z,14
2017-06-27T00:17:53.256Z,13.9
2017-06-27T00:18:55.927Z,13.9
2017-06-27T00:19:58.633Z,13.8
2017-06-27T00:21:01.286Z,13.9
2017-06-27T00:22:03.998Z,13.9
2017-06-27T00:23:06.616Z,13.9
2017-06-27T00:24:09.288Z,13.9
2017-06-27T00:25:11.944Z,13.9
2017-06-27T00:26:14.508Z,13.9
2017-06-27T00:27:17.154Z,13.9
2017-06-27T00:28:19.774Z,13.9
2017-06-27T00:29:22.394Z,13.7
2017-06-27T00:30:25.004Z,13.7
2017-06-27T00:31:27.613Z,13.8
2017-06-27T00:32:30.214Z,13.6
2017-06-27T00:33:32.837Z,13.6
2017-06-27T00:34:35.576Z,13.6
2017-06-27T00:35:38.260Z,13.6
2017-06-27T00:36:40.864Z,13.6
2017-06-27T00:37:43.538Z,13.6
2017-06-27T00:38:46.208Z,13.6
2017-06-27T00:39:49.052Z,13.6
2017-06-27T00:40:51.717Z,13.6
2017-06-27T00:41:54.356Z,13.6
2017-06-27T00:42:57.080Z,13.4
2017-06-27T00:43:59.660Z,13.5
2017-06-27T00:45:02.405Z,13.5
2017-06-27T00:46:05.049Z,13.3
2017-06-27T00:47:07.764Z,13.6
2017-06-27T00:48:11.639Z,13.7
2017-06-27T00:49:14.286Z,13.8
2017-06-27T00:50:17.407Z,13.6
2017-06-27T00:51:19.991Z,13.5
2017-06-27T00:52:22.563Z,13.7
2017-06-27T00:53:25.212Z,13.6
2017-06-27T00:54:27.853Z,13.5
2017-06-27T00:55:30.513Z,13.6
2017-06-27T00:56:33.126Z,13.5
2017-06-27T00:57:35.841Z,13.5
2017-06-27T00:58:38.545Z,13.5
2017-06-27T00:59:41.121Z,13.4
2017-06-27T01:00:43.762Z,13.4
2017-06-27T01:01:46.450Z,13.5
2017-06-27T01:02:49.067Z,13.4
2017-06-27T01:03:51.809Z,13.4
2017-06-27T01:04:54.578Z,13.4
2017-06-27T01:05:57.226Z,13.4
2017-06-27T01:06:59.812Z,13.3
2017-06-27T01:08:02.533Z,13.3
2017-06-27T01:09:05.165Z,13.3
2017-06-27T01:10:08.050Z,13.3
2017-06-27T01:11:11.399Z,13.3
2017-06-27T01:12:14.094Z,13.4
2017-06-27T01:13:16.873Z,13.5
2017-06-27T01:14:19.501Z,13.4
2017-06-27T01:15:22.078Z,13.4
2017-06-27T01:16:24.704Z,13.5
2017-06-27T01:17:27.344Z,13.4
2017-06-27T01:18:30.006Z,13.5
2017-06-27T01:19:32.718Z,13.4
2017-06-27T01:20:35.638Z,13.3
2017-06-27T01:21:38.597Z,13.2
2017-06-27T01:22:41.437Z,13.4
2017-06-27T01:23:44.107Z,13.2
2017-06-27T01:24:46.870Z,13.3
2017-06-27T01:25:49.660Z,13.3
2017-06-27T01:26:52.354Z,13.4
2017-06-27T01:27:55.125Z,13.2
2017-06-27T01:28:57.775Z,13.2
2017-06-27T01:30:00.380Z,13.3
2017-06-27T01:31:02.943Z,13.2
2017-06-27T01:32:05.577Z,13.2
2017-06-27T01:33:08.319Z,13.2
2017-06-27T01:34:12.097Z,13.2
2017-06-27T01:35:14.714Z,13.1
2017-06-27T01:36:17.298Z,13.2
2017-06-27T01:37:19.881Z,13.1
2017-06-27T01:38:22.607Z,13
2017-06-27T01:39:25.171Z,13.1
2017-06-27T01:40:27.905Z,13.2
2017-06-27T01:41:30.592Z,13.2
2017-06-27T01:42:33.321Z,13.2
2017-06-27T01:43:35.980Z,13.2
2017-06-27T01:44:38.671Z,13.1
2017-06-27T01:45:41.421Z,13.1
2017-06-27T01:46:44.119Z,13.3
2017-06-27T01:47:47.129Z,13.3
2017-06-27T01:48:49.805Z,13.2
2017-06-27T01:49:52.480Z,13.1
2017-06-27T01:50:55.191Z,13.1
2017-06-27T01:51:57.857Z,13.1
2017-06-27T01:53:00.417Z,13.3
2017-06-27T01:54:03.093Z,13
2017-06-27T01:55:05.735Z,13
2017-06-27T01:56:08.408Z,13
2017-06-27T01:57:12.127Z,13
2017-06-27T01:58:14.735Z,12.9
2017-06-27T01:59:17.425Z,13
2017-06-27T02:00:20.007Z,13.1
2017-06-27T02:01:22.613Z,13.1
2017-06-27T02:02:25.349Z,13
2017-06-27T02:03:28.014Z,13
2017-06-27T02:04:30.700Z,13
2017-06-27T02:05:33.350Z,13
2017-06-27T02:06:35.955Z,13
2017-06-27T02:07:38.586Z,13
2017-06-27T02:08:41.329Z,13
2017-06-27T02:09:43.997Z,13
2017-06-27T02:10:47.065Z,12.9
2017-06-27T02:11:49.708Z,12.9
2017-06-27T02:12:52.340Z,12.9
2017-06-27T02:13:54.911Z,12.9
2017-06-27T02:14:57.537Z,12.9
2017-06-27T02:16:00.193Z,12.9
2017-06-27T02:17:02.953Z,12.9
2017-06-27T02:18:05.560Z,12.9
2017-06-27T02:19:08.188Z,12.8
2017-06-27T02:20:11.982Z,12.9
2017-06-27T02:21:14.583Z,12.9
2017-06-27T02:22:17.203Z,12.7
2017-06-27T02:23:19.759Z,12.9
2017-06-27T02:24:22.332Z,12.8
2017-06-27T02:25:24.889Z,12.8
2017-06-27T02:26:27.458Z,12.9
2017-06-27T02:27:30.040Z,12.9
2017-06-27T02:28:32.666Z,12.9
2017-06-27T02:29:35.279Z,12.8
2017-06-27T02:30:38.004Z,12.7
2017-06-27T02:31:40.725Z,12.7
2017-06-27T02:32:43.269Z,12.7
2017-06-27T02:33:46.066Z,12.7
2017-06-27T02:34:48.740Z,12.6
2017-06-27T02:35:51.288Z,12.7
2017-06-27T02:36:53.975Z,12.7
2017-06-27T02:37:56.714Z,12.6
2017-06-27T02:38:59.310Z,12.6
2017-06-27T02:40:01.915Z,12.5
2017-06-27T02:41:04.460Z,12.7
2017-06-27T02:42:07.162Z,12.7
2017-06-27T02:43:11.035Z,12.7
2017-06-27T02:44:13.843Z,12.7
2017-06-27T02:45:16.484Z,12.7
2017-06-27T02:46:19.101Z,12.8
2017-06-27T02:47:21.763Z,12.7
2017-06-27T02:48:24.307Z,12.8
2017-06-27T02:49:27.098Z,12.7
2017-06-27T02:50:29.728Z,12.8
2017-06-27T02:51:32.393Z,12.9
2017-06-27T02:52:35.537Z,12.8
2017-06-27T02:53:38.181Z,12.7
2017-06-27T02:54:40.765Z,12.8
2017-06-27T02:55:43.449Z,12.8
2017-06-27T02:56:46.169Z,12.7
2017-06-27T02:57:48.769Z,12.6
2017-06-27T02:58:51.377Z,12.6
2017-06-27T02:59:53.922Z,12.6
2017-06-27T03:00:56.488Z,12.8
2017-06-27T03:01:59.056Z,12.8
2017-06-27T03:03:01.681Z,12.7
2017-06-27T03:04:04.259Z,12.7
2017-06-27T03:05:06.920Z,12.4
2017-06-27T03:06:10.769Z,12.8
2017-06-27T03:07:13.364Z,12.9
2017-06-27T03:08:15.912Z,12.8
2017-06-27T03:09:18.551Z,12.8
2017-06-27T03:10:21.432Z,12.6
2017-06-27T03:11:24.004Z,12.6
2017-06-27T03:12:26.527Z,12.5
2017-06-27T03:13:32.458Z,12.5
2017-06-27T03:14:48.140Z,12.8
2017-06-27T03:15:55.629Z,13
2017-06-27T03:17:03.594Z,13
2017-06-27T03:18:07.550Z,12.9
2017-06-27T03:19:11.822Z,12.9
2017-06-27T03:20:14.521Z,13.1
2017-06-27T03:21:17.217Z,13
2017-06-27T03:22:19.805Z,13
2017-06-27T03:23:22.361Z,13.1
2017-06-27T03:24:24.954Z,13.2
2017-06-27T03:25:27.746Z,13
2017-06-27T03:26:30.316Z,12.8
2017-06-27T03:27:33.890Z,12.9
2017-06-27T03:28:37.277Z,13
2017-06-27T03:29:39.863Z,12.8
2017-06-27T03:30:42.542Z,12.6
2017-06-27T03:31:45.304Z,12.7
2017-06-27T03:32:47.995Z,12.6
2017-06-27T03:33:50.634Z,12.5
2017-06-27T03:34:53.852Z,12.8
2017-06-27T03:35:56.488Z,12.8
2017-06-27T03:36:59.040Z,13
2017-06-27T03:38:01.793Z,13.1
2017-06-27T03:39:04.480Z,13.2
2017-06-27T03:40:07.572Z,13.3
2017-06-27T03:41:11.882Z,13
2017-06-27T03:42:14.672Z,13.2
2017-06-27T03:43:17.437Z,13
2017-06-27T03:44:20.129Z,13.1
2017-06-27T03:45:22.796Z,13
2017-06-27T03:46:25.394Z,12.9
2017-06-27T03:47:28.064Z,13
2017-06-27T03:48:30.718Z,13.1
2017-06-27T03:49:33.965Z,13.2
2017-06-27T03:50:36.619Z,12.8
2017-06-27T03:51:39.304Z,13
2017-06-27T03:52:41.910Z,12.8
2017-06-27T03:53:44.541Z,12.8
2017-06-27T03:54:47.335Z,12.7
2017-06-27T03:55:49.941Z,12.8
2017-06-27T03:56:52.571Z,13
2017-06-27T03:57:55.250Z,12.9
2017-06-27T03:58:58.218Z,12.9
2017-06-27T04:00:01.038Z,12.9
2017-06-27T04:01:03.706Z,13
2017-06-27T04:02:06.235Z,12.9
2017-06-27T04:03:10.085Z,12.9
2017-06-27T04:04:12.946Z,12.9
2017-06-27T04:05:15.740Z,12.9
2017-06-27T04:06:18.501Z,13.1
2017-06-27T04:07:21.125Z,13.3
2017-06-27T04:08:23.807Z,13.4
2017-06-27T04:09:26.461Z,13.6
2017-06-27T04:10:29.154Z,13.6
2017-06-27T04:11:31.875Z,13.7
2017-06-27T04:12:34.482Z,13.8
2017-06-27T04:13:37.906Z,13.8
2017-06-27T04:14:40.678Z,13.9
2017-06-27T04:15:43.528Z,14
2017-06-27T04:16:46.316Z,13.7
2017-06-27T04:17:49.116Z,13.8
2017-06-27T04:18:51.801Z,13.8
2017-06-27T04:19:54.556Z,13.9
2017-06-27T04:20:57.238Z,13.7
2017-06-27T04:21:59.904Z,13.9
2017-06-27T04:23:02.934Z,13.7
2017-06-27T04:24:05.706Z,13.6
2017-06-27T04:25:08.411Z,13.8
2017-06-27T04:26:12.273Z,13.9
2017-06-27T04:27:14.929Z,13.6
2017-06-27T04:28:17.750Z,13.7
2017-06-27T04:29:20.501Z,13.8
2017-06-27T04:30:23.117Z,14.1
2017-06-27T04:31:25.780Z,14.3
2017-06-27T04:32:28.435Z,14.1
2017-06-27T04:33:31.129Z,14
2017-06-27T04:34:33.897Z,14
2017-06-27T04:35:36.572Z,14.1
2017-06-27T04:36:39.280Z,14
2017-06-27T04:37:41.877Z,13.8
2017-06-27T04:38:44.490Z,13.9
2017-06-27T04:39:47.202Z,13.8
2017-06-27T04:40:49.846Z,13.8
2017-06-27T04:41:52.621Z,13.7
2017-06-27T04:42:55.237Z,13.8
2017-06-27T04:43:57.964Z,13.8
2017-06-27T04:45:00.595Z,13.7
2017-06-27T04:46:04.112Z,13.6
2017-06-27T04:47:07.526Z,13.6
2017-06-27T04:48:11.551Z,13.5
2017-06-27T04:49:15.134Z,13.7
2017-06-27T04:50:17.792Z,13.5
2017-06-27T04:51:20.501Z,13.7
2017-06-27T04:52:23.194Z,13.7
2017-06-27T04:53:25.775Z,14
2017-06-27T04:54:28.513Z,14.1
2017-06-27T04:55:31.268Z,14.3
2017-06-27T04:56:33.906Z,14.2
2017-06-27T04:57:36.554Z,14.3
2017-06-27T04:58:39.356Z,14.3
2017-06-27T04:59:42.032Z,14.4
2017-06-27T05:00:44.739Z,14.5
2017-06-27T05:01:47.412Z,14.6
2017-06-27T05:02:50.793Z,14.2
2017-06-27T05:03:53.371Z,14.5
2017-06-27T05:04:55.998Z,14.5
2017-06-27T05:05:58.674Z,14.5
2017-06-27T05:07:01.298Z,14.5
2017-06-27T05:08:04.019Z,14.5
2017-06-27T05:09:07.112Z,14.2
2017-06-27T05:10:09.798Z,14.4
2017-06-27T05:11:12.687Z,14.4
2017-06-27T05:12:16.273Z,14.2
2017-06-27T05:13:19.362Z,14.4
2017-06-27T05:14:21.973Z,14.2
2017-06-27T05:15:24.690Z,14.4
2017-06-27T05:16:27.489Z,14.3
2017-06-27T05:17:30.222Z,14.3
2017-06-27T05:18:32.817Z,14.4
2017-06-27T05:19:35.390Z,14.2
2017-06-27T05:20:38.045Z,14
2017-06-27T05:21:40.634Z,14.3
2017-06-27T05:22:43.945Z,14.2
2017-06-27T05:23:46.526Z,14
2017-06-27T05:24:49.228Z,14.2
2017-06-27T05:25:51.853Z,14.3
2017-06-27T05:26:54.443Z,14.2
2017-06-27T05:27:57.122Z,14.1
2017-06-27T05:28:59.805Z,14.1
2017-06-27T05:30:02.660Z,14.1
2017-06-27T05:31:06.206Z,14.2
2017-06-27T05:32:09.007Z,14.2
2017-06-27T05:33:11.863Z,13.9
2017-06-27T05:34:14.493Z,14
2017-06-27T05:35:17.252Z,14.2
2017-06-27T05:36:19.900Z,14.4
2017-06-27T05:37:22.680Z,13.9
2017-06-27T05:38:25.479Z,14.2
2017-06-27T05:39:28.244Z,14.2
2017-06-27T05:40:30.901Z,14.3
2017-06-27T05:41:33.555Z,14.3
2017-06-27T05:42:36.153Z,14.4
2017-06-27T05:43:38.889Z,14.5
2017-06-27T05:44:41.491Z,14.5
2017-06-27T05:45:44.169Z,14.7
2017-06-27T05:46:46.832Z,14.8
2017-06-27T05:47:49.613Z,14.9
2017-06-27T05:48:54.131Z,14.7
2017-06-27T05:49:58.096Z,14.9
2017-06-27T05:51:00.954Z,14.7
2017-06-27T05:52:04.634Z,14.8
2017-06-27T05:53:07.437Z,14.9
2017-06-27T05:54:10.166Z,15
2017-06-27T05:55:13.794Z,15
2017-06-27T05:56:16.615Z,14.9
2017-06-27T05:57:19.474Z,14.8
2017-06-27T05:58:22.038Z,14.8
2017-06-27T05:59:24.665Z,14.8
2017-06-27T06:00:27.784Z,14.9
2017-06-27T06:01:31.365Z,14.7
2017-06-27T06:02:34.023Z,14.8
2017-06-27T06:03:36.610Z,14.6
2017-06-27T06:04:39.306Z,14.9
2017-06-27T06:05:41.905Z,14.9
2017-06-27T06:06:44.490Z,14.9
2017-06-27T06:07:48.268Z,15
2017-06-27T06:08:52.137Z,15.2
2017-06-27T06:09:55.314Z,15.1
2017-06-27T06:10:58.884Z,14.9
2017-06-27T06:12:03.379Z,14.9
2017-06-27T06:13:06.535Z,15.1
2017-06-27T06:14:09.734Z,14.8
2017-06-27T06:15:12.859Z,15.3
2017-06-27T06:16:16.189Z,15.4
2017-06-27T06:17:20.369Z,15.4
2017-06-27T06:18:24.055Z,15.5
2017-06-27T06:19:27.539Z,15.6
2017-06-27T06:20:31.260Z,15.6
2017-06-27T06:21:35.129Z,15.5
2017-06-27T06:22:39.491Z,15.8
2017-06-27T06:23:43.192Z,15.6
2017-06-27T06:24:50.524Z,16.1
2017-06-27T06:25:57.754Z,15.9
2017-06-27T06:27:08.673Z,15.6
2017-06-27T06:28:16.347Z,15.6
2017-06-27T06:29:22.221Z,15.7
2017-06-27T06:30:31.497Z,15.6
2017-06-27T06:31:53.254Z,15.8
2017-06-27T06:32:58.960Z,15.7
2017-06-27T06:34:13.587Z,15.8
2017-06-27T06:35:24.726Z,16
2017-06-27T06:37:53.609Z,16.2
2017-06-27T06:39:16.381Z,15.8
2017-06-27T06:40:19.431Z,15.7
2017-06-27T06:41:22.093Z,15.5
2017-06-27T06:42:24.861Z,15.5
2017-06-27T06:43:27.742Z,15.7
2017-06-27T06:44:30.493Z,15.9
2017-06-27T06:45:33.211Z,15.9
2017-06-27T06:46:35.936Z,16.1
2017-06-27T06:47:40.392Z,15.9
2017-06-27T06:48:45.312Z,15.6
2017-06-27T06:49:48.265Z,15.8
2017-06-27T06:50:50.870Z,15.7
2017-06-27T06:51:53.565Z,15.8
2017-06-27T06:52:56.300Z,15.9
2017-06-27T06:53:59.018Z,15.9
2017-06-27T06:55:01.713Z,15.9
2017-06-27T06:56:04.450Z,15.9
2017-06-27T06:57:07.089Z,16
2017-06-27T06:58:10.067Z,16.2
2017-06-27T06:59:12.927Z,16.2
2017-06-27T07:00:16.989Z,15.8
2017-06-27T07:01:19.898Z,15.8
2017-06-27T07:02:23.249Z,15.7
2017-06-27T07:03:25.896Z,15.6
2017-06-27T07:04:28.584Z,16.1
2017-06-27T07:05:31.371Z,16.2
2017-06-27T07:06:34.066Z,16.2
2017-06-27T07:07:37.883Z,16.3
2017-06-27T07:08:40.681Z,16.4
2017-06-27T07:09:45.395Z,16.5
2017-06-27T07:10:48.189Z,16.7
2017-06-27T07:11:50.888Z,16.5
2017-06-27T07:12:54.565Z,16.2
2017-06-27T07:13:57.332Z,16.4
2017-06-27T07:15:00.062Z,16.4
2017-06-27T07:16:02.796Z,16
2017-06-27T07:17:05.461Z,16.2
2017-06-27T07:18:08.298Z,16
2017-06-27T07:19:11.108Z,16.1
2017-06-27T07:20:15.568Z,16.4
2017-06-27T07:21:18.326Z,16.5
2017-06-27T07:22:20.884Z,16.6
2017-06-27T07:23:23.607Z,16.4
2017-06-27T07:24:26.324Z,16.4
2017-06-27T07:25:29.114Z,16.5
2017-06-27T07:26:31.851Z,16.7
2017-06-27T07:27:34.688Z,16.8
2017-06-27T07:28:37.523Z,16.7
2017-06-27T07:29:40.338Z,16.4
2017-06-27T07:30:44.875Z,16.2
2017-06-27T07:31:47.856Z,15.9
2017-06-27T07:32:51.247Z,16.2
2017-06-27T07:33:53.917Z,16.3
2017-06-27T07:34:56.631Z,16.5
2017-06-27T07:35:59.564Z,16.5
2017-06-27T07:37:02.279Z,16.1
2017-06-27T07:38:07.145Z,16.1
2017-06-27T07:39:10.132Z,16.3
2017-06-27T07:40:12.867Z,16.2
2017-06-27T07:41:15.978Z,16.1
2017-06-27T07:42:19.745Z,16.4
2017-06-27T07:43:25.181Z,16
2017-06-27T07:44:28.039Z,15.7
2017-06-27T07:45:30.789Z,15.9
2017-06-27T07:46:33.558Z,16.1
2017-06-27T07:47:36.353Z,16
2017-06-27T07:48:39.305Z,16.1
2017-06-27T07:49:42.810Z,16.3
2017-06-27T07:50:47.060Z,16.2
2017-06-27T07:51:49.887Z,16.4
2017-06-27T07:52:52.567Z,16.4
2017-06-27T07:53:55.325Z,16.4
2017-06-27T07:54:58.014Z,16.6
2017-06-27T07:56:00.803Z,16.5
2017-06-27T07:57:03.403Z,16.3
2017-06-27T07:58:06.108Z,16.2
2017-06-27T07:59:09.015Z,16.5
2017-06-27T08:00:11.714Z,16.3
2017-06-27T08:01:16.267Z,16.5
2017-06-27T08:02:19.077Z,16.3
2017-06-27T08:03:21.704Z,16.3
2017-06-27T08:04:24.476Z,16.2
2017-06-27T08:05:27.169Z,16.2
2017-06-27T08:06:30.076Z,16.5
2017-06-27T08:07:33.588Z,16.5
2017-06-27T08:08:37.784Z,16.8
2017-06-27T08:09:40.471Z,16.9
2017-06-27T08:10:43.703Z,16.6
2017-06-27T08:11:46.937Z,16.3
2017-06-27T08:12:49.908Z,16.1
2017-06-27T08:13:53.281Z,15.9
2017-06-27T08:14:55.985Z,16
2017-06-27T08:15:58.713Z,16.4
2017-06-27T08:17:01.923Z,16.5
2017-06-27T08:18:04.572Z,16.7
2017-06-27T08:19:07.470Z,16.7
2017-06-27T08:20:10.189Z,16.3
2017-06-27T08:21:12.866Z,16.5
2017-06-27T08:22:16.649Z,16.5
2017-06-27T08:23:20.257Z,16.5
2017-06-27T08:24:22.924Z,16.5
2017-06-27T08:25:25.653Z,16.7
2017-06-27T08:26:28.404Z,16.7
2017-06-27T08:27:31.097Z,16.8
2017-06-27T08:28:34.478Z,16.5
2017-06-27T08:29:38.821Z,16.4
2017-06-27T08:30:42.993Z,16.4
2017-06-27T08:31:45.609Z,16.5
2017-06-27T08:32:49.314Z,16.3
2017-06-27T08:33:52.155Z,16.2
2017-06-27T08:34:54.775Z,16.2
2017-06-27T08:35:57.465Z,16.5
2017-06-27T08:37:00.485Z,16.6
2017-06-27T08:38:03.302Z,16.9
2017-06-27T08:39:06.085Z,16.8
2017-06-27T08:40:09.109Z,16.3
2017-06-27T08:41:11.711Z,16.4
2017-06-27T08:42:14.393Z,16.2
2017-06-27T08:43:17.129Z,16.5
2017-06-27T08:44:20.099Z,16.5
2017-06-27T08:45:22.810Z,16.7
2017-06-27T08:46:25.485Z,16.9
2017-06-27T08:47:29.035Z,16.7
2017-06-27T08:48:32.500Z,17.2
2017-06-27T08:49:37.013Z,17.2
2017-06-27T08:50:39.843Z,17.4
2017-06-27T08:51:42.771Z,17.4
2017-06-27T08:52:45.561Z,17.4
2017-06-27T08:53:48.446Z,17.5
2017-06-27T08:54:51.274Z,17.4
2017-06-27T08:55:54.044Z,17.5
2017-06-27T08:56:56.736Z,17.5
2017-06-27T08:57:59.641Z,17.4
2017-06-27T08:59:02.847Z,17.6
2017-06-27T09:00:06.107Z,17.7
2017-06-27T09:01:09.525Z,17.8
2017-06-27T09:02:12.259Z,18
2017-06-27T09:03:14.996Z,18.2
2017-06-27T09:04:18.675Z,18.6
2017-06-27T09:05:21.729Z,18
2017-06-27T09:06:25.285Z,18
2017-06-27T09:07:30.566Z,18
2017-06-27T09:08:34.744Z,18
2017-06-27T09:09:38.807Z,18.1
2017-06-27T09:10:42.580Z,18.1
2017-06-27T09:11:45.551Z,18.2
2017-06-27T09:12:48.679Z,17.9
2017-06-27T09:13:51.640Z,17.9
2017-06-27T09:14:57.604Z,17.9
2017-06-27T09:16:00.419Z,17.7
2017-06-27T09:17:03.397Z,18
2017-06-27T09:18:06.982Z,18.2
2017-06-27T09:19:10.371Z,18.2
2017-06-27T09:20:13.204Z,18
2017-06-27T09:21:15.926Z,18
2017-06-27T09:22:18.773Z,17.9
2017-06-27T09:23:21.549Z,18
2017-06-27T09:24:24.351Z,18.3
2017-06-27T09:25:27.187Z,18.4
2017-06-27T09:26:30.180Z,18.2
2017-06-27T09:27:33.261Z,18.1
2017-06-27T09:28:36.067Z,18.4
2017-06-27T09:29:38.874Z,18.4
2017-06-27T09:30:42.739Z,18.1
2017-06-27T09:31:46.844Z,18.3
2017-06-27T09:32:49.745Z,18.2
2017-06-27T09:33:52.936Z,18.5
2017-06-27T09:34:55.584Z,18.2
2017-06-27T09:35:58.472Z,18.3
2017-06-27T09:37:01.242Z,18.8
2017-06-27T09:38:04.242Z,18.8
2017-06-27T09:39:07.355Z,18.9
2017-06-27T09:40:10.254Z,18.8
2017-06-27T09:41:12.895Z,18.9
2017-06-27T09:42:16.249Z,18.8
2017-06-27T09:43:19.011Z,19.3
2017-06-27T09:44:22.244Z,19.3
2017-06-27T09:45:25.008Z,19.3
2017-06-27T09:46:27.840Z,19.6
2017-06-27T09:47:31.012Z,19.5
2017-06-27T09:48:35.947Z,19.3
2017-06-27T09:49:39.145Z,19.6
2017-06-27T09:50:41.881Z,19.5
2017-06-27T09:51:44.628Z,19.7
2017-06-27T09:52:47.490Z,20
2017-06-27T09:53:50.248Z,20.3
2017-06-27T09:54:53.094Z,20.3
2017-06-27T09:55:55.915Z,19.9
2017-06-27T09:56:58.810Z,20.4
2017-06-27T09:58:01.703Z,19.8
2017-06-27T09:59:07.317Z,19.8
2017-06-27T10:00:10.440Z,20.4
2017-06-27T10:01:13.961Z,21.1
2017-06-27T10:02:16.794Z,20.9
2017-06-27T10:03:19.644Z,20.8
2017-06-27T10:04:22.318Z,20.9
2017-06-27T10:05:25.133Z,20.9
2017-06-27T10:06:27.896Z,20.5
2017-06-27T10:07:31.772Z,20.4
2017-06-27T10:08:36.316Z,20.5
2017-06-27T10:09:39.122Z,20.6
2017-06-27T10:10:41.844Z,20.1
2017-06-27T10:11:44.654Z,20.7
2017-06-27T10:12:47.317Z,20.6
2017-06-27T10:13:50.164Z,20.9
2017-06-27T10:14:52.805Z,21.2
2017-06-27T10:15:55.649Z,20.5
2017-06-27T10:16:58.489Z,20.5
2017-06-27T10:18:01.300Z,20.9
2017-06-27T10:19:04.224Z,21
2017-06-27T10:20:07.142Z,21.3
2017-06-27T10:21:15.566Z,20.7
2017-06-27T10:22:18.609Z,21
2017-06-27T10:23:21.575Z,21.2
2017-06-27T10:24:24.425Z,21.6
2017-06-27T10:25:27.177Z,21.4
2017-06-27T10:26:29.997Z,21.7
2017-06-27T10:27:32.952Z,21.5
2017-06-27T10:28:37.238Z,21.2
2017-06-27T10:29:40.091Z,21.4
2017-06-27T10:30:42.879Z,21.1
2017-06-27T10:31:45.719Z,21.4
2017-06-27T10:32:48.595Z,21.8
2017-06-27T10:33:51.440Z,21.1
2017-06-27T10:34:54.160Z,21.3
2017-06-27T10:35:58.425Z,21.4
2017-06-27T10:37:01.190Z,21.1
2017-06-27T10:38:04.331Z,21.7
2017-06-27T10:39:07.421Z,21.9
2017-06-27T10:40:10.342Z,22.2
2017-06-27T10:41:13.189Z,21.8
2017-06-27T10:42:15.883Z,21.9
2017-06-27T10:43:18.707Z,21.8
2017-06-27T10:44:21.466Z,21.4
2017-06-27T10:45:24.234Z,21.3
2017-06-27T10:46:30.573Z,21.5
2017-06-27T10:47:33.455Z,21.5
2017-06-27T10:48:37.133Z,22
2017-06-27T10:49:40.377Z,22.4
2017-06-27T10:50:43.242Z,22.1
2017-06-27T10:51:46.625Z,21.7
2017-06-27T10:52:50.654Z,22
2017-06-27T10:53:53.465Z,22.1
2017-06-27T10:54:56.659Z,21.8
2017-06-27T10:55:59.608Z,22
2017-06-27T10:57:02.526Z,22.3
2017-06-27T10:58:05.855Z,22.1
2017-06-27T10:59:09.212Z,22
2017-06-27T11:00:13.828Z,22.1
2017-06-27T11:01:16.925Z,22.6
2017-06-27T11:02:20.042Z,22
2017-06-27T11:03:23.085Z,21.7
2017-06-27T11:04:26.339Z,21.9
2017-06-27T11:05:30.102Z,22
2017-06-27T11:06:33.020Z,21.9
2017-06-27T11:07:36.685Z,22.1
2017-06-27T11:08:39.926Z,22.1
2017-06-27T11:09:42.883Z,21.4
2017-06-27T11:10:46.881Z,21.2
2017-06-27T11:11:50.049Z,21.3
2017-06-27T11:12:53.249Z,21.4
2017-06-27T11:13:56.321Z,21.5
2017-06-27T11:15:01.851Z,21.5
2017-06-27T11:16:04.690Z,21.7
2017-06-27T11:17:07.617Z,22.3
2017-06-27T11:18:10.904Z,22.2
2017-06-27T11:19:14.009Z,22.6
2017-06-27T11:20:16.857Z,22
2017-06-27T11:21:19.916Z,21.9
2017-06-27T11:22:22.950Z,21.5
2017-06-27T11:23:25.883Z,21.7
2017-06-27T11:24:28.771Z,21.7
2017-06-27T11:25:32.273Z,21.8
2017-06-27T11:26:35.088Z,22
2017-06-27T11:27:37.920Z,22
2017-06-27T11:28:40.726Z,21.8
2017-06-27T11:29:43.676Z,21.8
2017-06-27T11:30:46.559Z,21.7
2017-06-27T11:31:49.440Z,21.6
2017-06-27T11:32:52.351Z,21.6
2017-06-27T11:33:55.141Z,21.2
2017-06-27T11:34:57.893Z,21.6
2017-06-27T11:36:00.743Z,21.8
2017-06-27T11:37:03.426Z,21.5
2017-06-27T11:38:06.078Z,21.7
2017-06-27T11:39:09.080Z,21.9
2017-06-27T11:40:12.013Z,22
2017-06-27T11:41:15.054Z,21.9
2017-06-27T11:42:18.006Z,21.9
2017-06-27T11:43:21.028Z,21.7
2017-06-27T11:44:23.930Z,21.6
2017-06-27T11:45:27.156Z,21.5
2017-06-27T11:46:30.325Z,21.1
2017-06-27T11:47:33.221Z,21.7
2017-06-27T11:48:36.567Z,21.7
2017-06-27T11:49:40.789Z,21.6
2017-06-27T11:50:43.789Z,21.6
2017-06-27T11:51:46.656Z,21.1
2017-06-27T11:52:52.083Z,21.2
2017-06-27T11:53:54.978Z,21.4
2017-06-27T11:54:58.009Z,21.4
2017-06-27T11:56:01.243Z,21.4
2017-06-27T11:57:04.007Z,21.6
2017-06-27T11:58:06.775Z,21.5
2017-06-27T11:59:09.675Z,21.6
2017-06-27T12:00:12.400Z,21.9
2017-06-27T12:01:15.213Z,22
2017-06-27T12:02:18.150Z,21.6
2017-06-27T12:03:21.266Z,21.8
2017-06-27T12:04:24.170Z,21.8
2017-06-27T12:05:26.922Z,21.6
2017-06-27T12:06:29.731Z,21.8
2017-06-27T12:07:32.557Z,21.7
2017-06-27T12:08:35.320Z,21.8
2017-06-27T12:09:38.192Z,22
2017-06-27T12:10:41.127Z,21.8
2017-06-27T12:11:43.832Z,22
2017-06-27T12:12:46.635Z,22.5
2017-06-27T12:13:49.380Z,22.7
2017-06-27T12:14:52.579Z,22.8
2017-06-27T12:15:55.625Z,22.9
2017-06-27T12:16:59.579Z,22.4
2017-06-27T12:18:02.384Z,22.9
2017-06-27T12:19:05.249Z,22.9
2017-06-27T12:20:12.959Z,22.4
2017-06-27T12:21:15.995Z,22.6
2017-06-27T12:22:18.900Z,23.1
2017-06-27T12:23:21.782Z,23.3
2017-06-27T12:25:36.575Z,22.7
2017-06-27T12:26:40.299Z,22.9
2017-06-27T12:27:44.214Z,23.3
2017-06-27T12:28:50.305Z,23.3
2017-06-27T12:29:53.215Z,23
2017-06-27T12:30:56.607Z,23
2017-06-27T12:31:59.697Z,23
2017-06-27T12:33:03.449Z,23
2017-06-27T12:34:06.581Z,22.9
2017-06-27T12:35:09.571Z,22.7
2017-06-27T12:36:12.383Z,22.5
2017-06-27T12:37:15.290Z,22.3
2017-06-27T12:38:18.201Z,22.9
2017-06-27T12:39:22.129Z,23.1
2017-06-27T12:40:25.024Z,22.9
2017-06-27T12:41:27.884Z,22.6
2017-06-27T12:42:31.765Z,22.5
2017-06-27T12:43:37.850Z,23.1
2017-06-27T12:44:41.725Z,22.8
2017-06-27T12:45:45.988Z,23
2017-06-27T12:46:49.209Z,22.8
2017-06-27T12:47:53.359Z,23.1
2017-06-27T12:48:57.338Z,23.5
2017-06-27T12:50:00.735Z,23.4
2017-06-27T12:51:03.696Z,23.2
2017-06-27T12:52:06.721Z,22.3
2017-06-27T12:53:09.560Z,22.4
2017-06-27T12:54:12.425Z,22.6
2017-06-27T12:55:15.213Z,22.3
2017-06-27T12:56:18.313Z,22
2017-06-27T12:57:21.205Z,22.2
2017-06-27T12:58:23.980Z,22.3
2017-06-27T12:59:26.801Z,22.2
2017-06-27T13:00:29.685Z,22.2
2017-06-27T13:01:32.580Z,22.4
2017-06-27T13:02:38.259Z,22.6
2017-06-27T13:03:41.220Z,22.5
2017-06-27T13:04:44.010Z,22.6
2017-06-27T13:05:46.765Z,22.7
2017-06-27T13:06:49.557Z,22.7
2017-06-27T13:07:53.044Z,22.4
2017-06-27T13:08:56.266Z,23
2017-06-27T13:10:01.650Z,23.1
2017-06-27T13:11:04.998Z,23
2017-06-27T13:12:08.892Z,22.6
2017-06-27T13:13:12.803Z,22.1
2017-06-27T13:14:15.533Z,22.1
2017-06-27T13:15:18.952Z,22.2
2017-06-27T13:16:23.401Z,22.4
2017-06-27T13:17:30.034Z,22.4
2017-06-27T13:18:33.462Z,22.2
2017-06-27T13:19:37.017Z,22.4
2017-06-27T13:20:41.423Z,22.1
2017-06-27T13:21:44.817Z,21.9
2017-06-27T13:22:49.256Z,21.8
2017-06-27T13:23:52.623Z,22
2017-06-27T13:24:55.680Z,21.9
2017-06-27T13:25:59.069Z,21.9
2017-06-27T13:27:02.183Z,22.1
2017-06-27T13:28:06.200Z,22.2
2017-06-27T13:29:10.516Z,22.2
2017-06-27T13:30:19.335Z,22.1
2017-06-27T13:31:23.790Z,21.8
2017-06-27T13:32:27.752Z,21.6
2017-06-27T13:33:31.226Z,21.9
2017-06-27T13:34:34.756Z,21.9
2017-06-27T13:35:39.207Z,21.9
2017-06-27T13:36:42.298Z,22
2017-06-27T13:37:45.113Z,22.1
2017-06-27T13:38:47.957Z,21.9
2017-06-27T13:39:50.785Z,21.9
2017-06-27T13:40:53.767Z,21.8
2017-06-27T13:41:56.655Z,22.1
2017-06-27T13:42:59.538Z,21.9
2017-06-27T13:44:02.260Z,21.9
2017-06-27T13:45:05.772Z,22.3
2017-06-27T13:46:08.540Z,22.4
2017-06-27T13:47:12.421Z,22
2017-06-27T13:48:16.101Z,21.9
2017-06-27T13:49:19.251Z,21.9
2017-06-27T13:50:22.389Z,22.1
2017-06-27T13:51:27.925Z,22.2
2017-06-27T13:52:30.890Z,22.4
2017-06-27T13:53:33.934Z,22.3
2017-06-27T13:54:37.444Z,22.1
2017-06-27T13:55:43.894Z,22.2
2017-06-27T13:56:48.868Z,22.1
2017-06-27T13:57:53.177Z,22.1
2017-06-27T13:58:57.043Z,22.2
2017-06-27T14:00:00.213Z,22.1
2017-06-27T14:01:03.982Z,22.2
2017-06-27T14:02:07.183Z,22.8
2017-06-27T14:03:10.258Z,22.3
2017-06-27T14:04:13.215Z,22.5
2017-06-27T14:05:16.517Z,22.6
2017-06-27T14:06:20.308Z,22.3
2017-06-27T14:07:23.243Z,22.1
2017-06-27T14:08:26.447Z,22.5
2017-06-27T14:09:29.600Z,22.8